Time;durP1;ratioP1;P1;durP2;ratioP2;P2;SDS_P1;SDS_P2;PMS_P1;PMS_P2;Temp;Humidity;BMP_temperature;BMP_pressure;BME280_temperature;BME280_humidity;BME280_pressure;Samples;Min_cycle;Max_cycle;Signal;HPM_P1;HPM_P2
2021/08/06 00:00:53;;;;;;;4.55;3.42;;;;;;;16.59;84.73;98550.63;5071976;28;20043;-53
2021/08/06 00:03:20;;;;;;;6.22;3.33;;;;;;;16.63;84.81;98547.69;5074682;28;20055;-45
2021/08/06 00:05:47;;;;;;;6.38;2.92;;;;;;;16.64;84.72;98554.88;5076944;28;20051;-45
2021/08/06 00:08:14;;;;;;;5.30;3.08;;;;;;;16.67;84.80;98551.22;5078177;28;20722;-52
2021/08/06 00:10:41;;;;;;;6.95;2.30;;;;;;;16.66;84.72;98550.41;5077512;28;20070;-44
2021/08/06 00:13:08;;;;;;;4.70;2.88;;;;;;;16.66;84.78;98555.22;5076839;28;20046;-48
2021/08/06 00:15:35;;;;;;;5.85;2.42;;;;;;;16.66;84.91;98549.63;5075959;28;20061;-50
2021/08/06 00:18:01;;;;;;;5.65;2.97;;;;;;;16.62;85.02;98554.53;5076965;28;20052;-51
2021/08/06 00:20:28;;;;;;;7.88;2.60;;;;;;;16.61;85.08;98553.75;5077717;28;20147;-49
2021/08/06 00:22:56;;;;;;;2.65;2.28;;;;;;;16.57;85.19;98553.06;5075699;28;20047;-45
2021/08/06 00:25:23;;;;;;;3.97;2.78;;;;;;;16.56;85.16;98556.28;5075373;28;20166;-46
2021/08/06 00:27:50;;;;;;;3.05;2.40;;;;;;;16.57;85.00;98553.06;5074840;28;20500;-50
2021/08/06 00:30:17;;;;;;;5.10;2.33;;;;;;;16.56;85.18;98553.47;5077237;28;20048;-49
2021/08/06 00:32:43;;;;;;;3.72;2.42;;;;;;;16.55;85.24;98549.13;5077278;28;20052;-45
2021/08/06 00:35:10;;;;;;;4.85;2.33;;;;;;;16.53;85.29;98557.94;5077159;28;20050;-45
2021/08/06 00:37:37;;;;;;;2.97;2.30;;;;;;;16.53;85.24;98554.34;5077906;28;20948;-44
2021/08/06 00:40:05;;;;;;;4.53;2.28;;;;;;;16.48;85.41;98558.44;5076958;28;20051;-44
2021/08/06 00:42:31;;;;;;;4.10;2.30;;;;;;;16.42;85.66;98560.97;5076622;28;20047;-48
2021/08/06 00:44:58;;;;;;;4.28;2.17;;;;;;;16.45;85.78;98550.94;5074353;28;20071;-45
2021/08/06 00:47:25;;;;;;;3.90;2.25;;;;;;;16.48;85.62;98549.28;5078963;28;20040;-43
2021/08/06 00:49:52;;;;;;;6.78;3.00;;;;;;;16.49;85.53;98557.22;5080553;28;20075;-44
2021/08/06 00:52:19;;;;;;;3.92;2.72;;;;;;;16.51;85.37;98554.00;5081669;28;20065;-46
2021/08/06 00:54:46;;;;;;;2.67;2.47;;;;;;;16.49;85.38;98562.81;5061669;28;20052;-48
2021/08/06 00:57:14;;;;;;;5.47;2.90;;;;;;;16.45;85.61;98559.31;5080712;28;20044;-45
2021/08/06 00:59:41;;;;;;;3.25;2.67;;;;;;;16.43;85.51;98556.97;5081787;28;20054;-44
2021/08/06 01:02:19;;;;;;;3.33;2.80;;;;;;;16.41;85.72;98562.19;5080489;28;20052;-50
2021/08/06 01:04:54;;;;;;;4.82;2.65;;;;;;;16.41;85.87;98561.44;5080678;28;20068;-48
2021/08/06 01:07:53;;;;;;;4.35;3.13;;;;;;;16.41;85.98;98561.44;5082034;28;20044;-44
2021/08/06 01:10:23;;;;;;;6.80;2.92;;;;;;;16.41;85.79;98564.97;5045797;28;20048;-44
2021/08/06 01:12:56;;;;;;;6.22;2.97;;;;;;;16.39;85.93;98564.63;5079218;28;20135;-49
2021/08/06 01:15:24;;;;;;;3.83;2.70;;;;;;;16.41;85.73;98562.19;5079507;28;20044;-47
2021/08/06 01:17:52;;;;;;;3.53;2.63;;;;;;;16.42;85.67;98562.97;5079488;28;20063;-46
2021/08/06 01:20:45;;;;;;;5.72;3.67;;;;;;;16.41;85.98;98564.22;5081368;28;20065;-44
2021/08/06 01:23:29;;;;;;;4.00;3.60;;;;;;;16.39;86.04;98563.84;5080374;28;20089;-43
2021/08/06 01:26:02;;;;;;;8.98;4.43;;;;;;;16.36;86.00;98559.91;5079815;28;20631;-47
2021/08/06 01:28:35;;;;;;;5.00;4.50;;;;;;;16.34;86.12;98556.78;5079791;28;20040;-44
2021/08/06 01:31:03;;;;;;;8.15;5.05;;;;;;;16.34;86.01;98562.38;5080284;28;20076;-44
2021/08/06 01:33:30;;;;;;;7.55;4.65;;;;;;;16.34;86.30;98565.16;5080113;28;20090;-43
2021/08/06 01:35:57;;;;;;;6.25;4.68;;;;;;;16.34;86.33;98556.00;5079705;28;20047;-47
2021/08/06 01:38:24;;;;;;;10.10;5.28;;;;;;;16.34;86.37;98561.59;5078436;28;20059;-44
2021/08/06 01:41:09;;;;;;;14.35;4.97;;;;;;;16.32;86.74;98555.66;5081588;28;20562;-48
2021/08/06 01:44:02;;;;;;;5.30;4.55;;;;;;;16.30;86.41;98549.72;5081425;28;20055;-47
2021/08/06 01:46:35;;;;;;;4.13;3.72;;;;;;;16.31;86.20;98557.66;5069058;28;20053;-44
2021/08/06 01:49:16;;;;;;;5.70;3.95;;;;;;;16.31;86.17;98557.66;5080615;28;20056;-43
2021/08/06 01:51:50;;;;;;;4.75;3.75;;;;;;;16.28;86.09;98552.19;5077824;28;20048;-45
2021/08/06 01:54:19;;;;;;;4.50;3.10;;;;;;;16.24;86.27;98557.06;5080724;28;20128;-43
2021/08/06 01:56:48;;;;;;;4.43;2.95;;;;;;;16.15;86.39;98559.69;5081782;28;20040;-44
2021/08/06 01:59:16;;;;;;;3.38;3.03;;;;;;;16.10;86.57;98563.75;5079296;28;20036;-47
2021/08/06 02:01:43;;;;;;;3.40;3.10;;;;;;;16.12;86.25;98555.75;5080775;28;20048;-44
2021/08/06 02:04:10;;;;;;;5.68;2.95;;;;;;;16.15;86.36;98557.66;5080499;28;20117;-45
2021/08/06 02:06:37;;;;;;;4.75;3.45;;;;;;;16.16;86.21;98552.84;5081256;28;20109;-47
2021/08/06 02:09:04;;;;;;;5.03;3.80;;;;;;;16.15;86.25;98557.66;5079911;28;20044;-48
2021/08/06 02:11:31;;;;;;;5.60;3.70;;;;;;;16.12;86.40;98544.59;5079909;28;20047;-47
2021/08/06 02:13:58;;;;;;;4.13;3.28;;;;;;;16.14;86.51;98547.72;5080442;28;20055;-45
2021/08/06 02:16:25;;;;;;;4.30;3.90;;;;;;;16.16;86.48;98550.84;5080666;28;20051;-44
2021/08/06 02:18:55;;;;;;;5.78;3.78;;;;;;;16.13;86.42;98554.50;5080356;28;20511;-47
2021/08/06 02:21:32;;;;;;;5.10;3.92;;;;;;;16.11;86.65;98553.38;5080473;28;20995;-46
2021/08/06 02:24:04;;;;;;;5.40;3.53;;;;;;;16.10;86.57;98558.16;5080190;28;20048;-44
2021/08/06 02:26:33;;;;;;;4.05;3.65;;;;;;;16.12;86.43;98552.16;5078883;28;20512;-47
2021/08/06 02:29:11;;;;;;;8.68;3.45;;;;;;;16.11;86.50;98553.38;5079347;28;20048;-54
2021/08/06 02:31:40;;;;;;;3.40;3.10;;;;;;;16.05;86.75;98555.09;5079608;28;20136;-44
2021/08/06 02:34:09;;;;;;;6.05;3.10;;;;;;;16.02;86.86;98556.00;5079872;28;20101;-49
2021/08/06 02:36:37;;;;;;;3.78;2.85;;;;;;;16.02;86.70;98556.78;5079349;28;20125;-46
2021/08/06 02:39:21;;;;;;;3.45;3.15;;;;;;;16.02;86.79;98548.41;5079456;28;20144;-47
2021/08/06 02:41:48;;;;;;;5.57;2.70;;;;;;;16.02;86.66;98567.94;5080667;28;20499;-46
2021/08/06 02:44:16;;;;;;;3.00;2.30;;;;;;;15.99;86.71;98557.63;5078705;28;20055;-44
2021/08/06 02:46:43;;;;;;;4.53;3.03;;;;;;;15.99;86.56;98562.44;5077908;28;20047;-44
2021/08/06 02:49:10;;;;;;;3.63;2.85;;;;;;;15.94;86.75;98555.34;5079343;28;20048;-44
2021/08/06 02:51:37;;;;;;;4.18;3.13;;;;;;;15.92;86.88;98555.03;5079297;28;20101;-47
2021/08/06 02:54:04;;;;;;;4.93;2.80;;;;;;;15.91;86.88;98556.25;5080165;28;20628;-44
2021/08/06 02:56:31;;;;;;;3.30;3.00;;;;;;;15.91;86.91;98559.03;5080593;28;20062;-44
2021/08/06 02:58:58;;;;;;;4.22;3.30;;;;;;;15.90;86.89;98560.25;5079984;28;20054;-44
2021/08/06 03:01:25;;;;;;;5.05;3.33;;;;;;;15.90;86.66;98560.25;5077092;28;20048;-47
2021/08/06 03:03:52;;;;;;;3.35;3.00;;;;;;;15.89;86.56;98564.25;5077939;28;20047;-44
2021/08/06 03:06:19;;;;;;;5.28;2.60;;;;;;;15.89;86.69;98567.03;5080263;28;20143;-49
2021/08/06 03:08:45;;;;;;;4.57;2.80;;;;;;;15.83;86.81;98566.75;5079283;28;20056;-45
2021/08/06 03:11:12;;;;;;;3.25;2.85;;;;;;;15.82;86.89;98570.00;5078753;28;20097;-44
2021/08/06 03:13:39;;;;;;;3.83;2.10;;;;;;;15.79;87.03;98568.06;5079705;28;20039;-44
2021/08/06 03:16:06;;;;;;;3.03;2.45;;;;;;;15.79;87.06;98562.50;5079080;28;20046;-47
2021/08/06 03:18:32;;;;;;;3.25;2.65;;;;;;;15.76;87.16;98563.34;5080140;28;20055;-46
2021/08/06 03:20:59;;;;;;;3.35;2.75;;;;;;;15.79;87.04;98562.50;5079699;28;20824;-48
2021/08/06 03:23:26;;;;;;;5.05;2.50;;;;;;;15.82;86.90;98570.00;5078948;28;20401;-43
2021/08/06 03:25:52;;;;;;;2.63;2.10;;;;;;;15.84;86.85;98573.13;5079567;28;20413;-44
2021/08/06 03:28:19;;;;;;;6.30;2.35;;;;;;;15.83;86.71;98569.56;5079454;28;20091;-46
2021/08/06 03:30:48;;;;;;;3.47;2.58;;;;;;;15.80;86.81;98566.88;5077884;28;20536;-44
2021/08/06 03:33:15;;;;;;;2.80;2.38;;;;;;;15.81;86.75;98569.22;5079059;28;20058;-44
2021/08/06 03:35:42;;;;;;;5.30;2.85;;;;;;;15.79;86.78;98560.50;5078371;28;20044;-47
2021/08/06 03:38:17;;;;;;;4.07;3.10;;;;;;;15.79;86.85;98565.28;5045171;28;20044;-49
2021/08/06 03:40:44;;;;;;;3.30;2.50;;;;;;;15.78;86.79;98563.69;5078360;28;20039;-43
2021/08/06 03:43:12;;;;;;;3.20;2.67;;;;;;;15.80;86.90;98562.06;5078435;28;20055;-48
2021/08/06 03:45:39;;;;;;;3.65;2.75;;;;;;;15.79;86.83;98552.13;5077645;28;20054;-46
2021/08/06 03:48:07;;;;;;;4.15;2.60;;;;;;;15.78;86.82;98558.91;5078736;28;20046;-48
2021/08/06 03:50:35;;;;;;;3.70;2.67;;;;;;;15.76;86.76;98550.19;5078546;28;20035;-44
2021/08/06 03:53:02;;;;;;;3.10;2.80;;;;;;;15.76;86.87;98552.97;5078559;28;20059;-44
2021/08/06 03:55:29;;;;;;;4.38;2.83;;;;;;;15.74;87.02;98557.44;5077816;28;20693;-46
2021/08/06 03:57:58;;;;;;;3.72;3.42;;;;;;;15.76;87.03;98554.97;5077283;28;20138;-44
2021/08/06 04:00:28;;;;;;;5.40;3.70;;;;;;;15.74;86.99;98555.44;5077582;28;20409;-48
2021/08/06 04:02:55;;;;;;;6.15;3.35;;;;;;;15.71;87.08;98550.72;5079392;28;20048;-44
2021/08/06 04:05:21;;;;;;;6.43;4.07;;;;;;;15.73;86.92;98558.63;5078909;28;20079;-47
2021/08/06 04:07:49;;;;;;;6.13;3.95;;;;;;;15.68;87.03;98554.38;5079683;28;20143;-43
2021/08/06 04:10:21;;;;;;;5.53;3.83;;;;;;;15.66;87.10;98553.22;5078918;28;20040;-45
2021/08/06 04:12:49;;;;;;;5.38;3.40;;;;;;;15.62;87.11;98563.69;5078240;28;20957;-43
2021/08/06 04:15:16;;;;;;;4.32;3.92;;;;;;;15.64;86.96;98561.25;5076868;28;20400;-47
2021/08/06 04:17:43;;;;;;;3.00;2.72;;;;;;;15.65;87.27;98560.00;5078499;28;20063;-44
2021/08/06 04:20:11;;;;;;;3.97;2.65;;;;;;;15.59;87.42;98565.34;5077487;28;20059;-46
2021/08/06 04:22:38;;;;;;;2.70;2.45;;;;;;;15.59;87.36;98556.97;5079034;28;20048;-43
2021/08/06 04:25:06;;;;;;;4.05;2.42;;;;;;;15.59;87.44;98556.19;5077668;28;20054;-44
2021/08/06 04:27:33;;;;;;;4.20;2.70;;;;;;;15.59;87.34;98572.91;5079179;28;20062;-48
2021/08/06 04:30:00;;;;;;;4.28;3.20;;;;;;;15.59;87.30;98564.53;5078210;28;20146;-46
2021/08/06 04:32:27;;;;;;;7.07;2.42;;;;;;;15.59;87.36;98575.69;5077837;28;20048;-46
2021/08/06 04:34:55;;;;;;;3.28;2.15;;;;;;;15.55;87.50;98572.97;5079040;28;20052;-44
2021/08/06 04:37:21;;;;;;;3.95;1.92;;;;;;;15.53;87.39;98563.47;5078385;28;20559;-47
2021/08/06 04:39:48;;;;;;;3.95;2.00;;;;;;;15.52;87.41;98579.41;5076421;28;20561;-46
2021/08/06 04:42:16;;;;;;;3.22;1.95;;;;;;;15.53;87.43;98569.84;5076834;28;20051;-49
2021/08/06 04:44:42;;;;;;;4.53;1.70;;;;;;;15.50;87.31;98575.50;5078359;28;20456;-47
2021/08/06 04:47:09;;;;;;;5.47;2.65;;;;;;;15.53;87.27;98569.06;5077602;28;20040;-45
2021/08/06 04:49:36;;;;;;;3.67;1.55;;;;;;;15.51;87.37;98579.84;5078228;28;20048;-43
2021/08/06 04:52:04;;;;;;;1.83;1.13;;;;;;;15.49;87.24;98573.94;5077765;28;20040;-44
2021/08/06 04:54:30;;;;;;;3.88;1.40;;;;;;;15.48;87.26;98583.50;5079160;28;20126;-45
2021/08/06 04:56:57;;;;;;;1.85;1.10;;;;;;;15.45;87.11;98578.75;5077306;28;20083;-43
2021/08/06 04:59:24;;;;;;;2.65;1.10;;;;;;;15.40;87.37;98573.69;5077804;28;20055;-44
2021/08/06 05:01:51;;;;;;;2.10;1.60;;;;;;;15.34;87.58;98573.41;5076150;28;20075;-46
2021/08/06 05:04:18;;;;;;;2.17;1.10;;;;;;;15.36;87.64;98582.09;5077097;28;20109;-45
2021/08/06 05:06:45;;;;;;;5.30;1.48;;;;;;;15.35;87.62;98586.13;5077505;28;20163;-47
2021/08/06 05:09:12;;;;;;;6.13;1.33;;;;;;;15.32;87.66;98580.63;5077636;28;20074;-47
2021/08/06 05:11:38;;;;;;;3.35;1.30;;;;;;;15.30;87.74;98585.84;5078731;28;20048;-43
2021/08/06 05:14:05;;;;;;;3.97;1.25;;;;;;;15.29;87.75;98587.06;5077145;28;20044;-44
2021/08/06 05:16:33;;;;;;;2.53;1.50;;;;;;;15.25;87.62;98581.53;5075621;28;20378;-45
2021/08/06 05:19:00;;;;;;;3.38;1.27;;;;;;;15.25;87.65;98587.09;5076572;28;20055;-45
2021/08/06 05:21:27;;;;;;;2.40;1.95;;;;;;;15.27;87.69;98589.50;5078543;28;20036;-48
2021/08/06 05:23:54;;;;;;;3.05;1.60;;;;;;;15.26;87.70;98599.84;5077341;28;20382;-44
2021/08/06 05:26:21;;;;;;;7.95;2.63;;;;;;;15.25;87.62;98601.84;5078026;28;20374;-48
2021/08/06 05:28:48;;;;;;;6.70;2.83;;;;;;;15.25;87.63;98598.25;5058487;28;20517;-43
2021/08/06 05:31:15;;;;;;;6.28;1.98;;;;;;;15.25;87.54;98601.84;5077118;28;20040;-48
2021/08/06 05:33:43;;;;;;;1.73;0.98;;;;;;;15.27;87.47;98597.84;5079330;28;20052;-44
2021/08/06 05:36:10;;;;;;;3.58;1.55;;;;;;;15.28;87.45;98600.19;5079942;28;20071;-45
2021/08/06 05:38:36;;;;;;;3.75;1.55;;;;;;;15.27;87.42;98602.19;5062536;28;20430;-47
2021/08/06 05:41:03;;;;;;;3.83;2.20;;;;;;;15.25;87.42;98599.06;5081262;28;20052;-48
2021/08/06 05:43:30;;;;;;;2.65;0.93;;;;;;;15.27;87.27;98602.19;5079426;28;20242;-44
2021/08/06 05:45:56;;;;;;;1.83;1.05;;;;;;;15.27;87.41;98600.63;5079026;28;20122;-43
2021/08/06 05:48:23;;;;;;;5.70;1.55;;;;;;;15.27;87.34;98604.97;5080727;28;20072;-44
2021/08/06 05:50:50;;;;;;;2.30;0.90;;;;;;;15.25;87.64;98601.03;5081596;28;20048;-49
2021/08/06 05:53:17;;;;;;;0.95;0.80;;;;;;;15.22;87.50;98594.34;5080866;28;20043;-45
2021/08/06 05:55:44;;;;;;;2.33;0.70;;;;;;;15.24;87.61;98602.28;5080007;28;20036;-44
2021/08/06 05:58:10;;;;;;;2.75;0.70;;;;;;;15.24;87.67;98603.06;5080227;28;20052;-46
2021/08/06 06:00:37;;;;;;;0.95;0.65;;;;;;;15.22;87.78;98605.47;5080601;28;20408;-47
2021/08/06 06:03:04;;;;;;;1.20;1.10;;;;;;;15.21;87.79;98603.13;5080623;28;20056;-47
2021/08/06 06:05:31;;;;;;;1.85;0.77;;;;;;;15.17;87.79;98596.81;5079482;28;20051;-44
2021/08/06 06:07:58;;;;;;;1.02;0.90;;;;;;;15.21;87.77;98609.50;5080197;28;20055;-44
2021/08/06 06:10:25;;;;;;;3.85;1.45;;;;;;;15.23;87.85;98598.69;5080331;28;20044;-47
2021/08/06 06:12:52;;;;;;;1.05;0.50;;;;;;;15.25;87.92;98598.25;5080503;28;20044;-45
2021/08/06 06:15:19;;;;;;;0.68;0.43;;;;;;;15.23;87.97;98601.50;5080044;28;20052;-44
2021/08/06 06:17:46;;;;;;;0.52;0.40;;;;;;;15.21;88.11;98592.78;5079289;28;20048;-45
2021/08/06 06:20:16;;;;;;;3.65;0.70;;;;;;;15.22;87.94;98604.72;5080052;28;20051;-46
2021/08/06 06:22:43;;;;;;;0.68;0.45;;;;;;;15.23;87.70;98604.28;5080668;28;20052;-45
2021/08/06 06:25:12;;;;;;;2.30;0.40;;;;;;;15.20;87.76;98602.34;5079115;28;20413;-44
2021/08/06 06:27:57;;;;;;;2.53;1.20;;;;;;;15.15;88.11;98605.63;5079226;28;20556;-47
2021/08/06 06:30:26;;;;;;;0.75;0.50;;;;;;;15.13;87.88;98610.06;5079057;28;20052;-45
2021/08/06 06:32:54;;;;;;;0.88;0.30;;;;;;;15.11;88.09;98604.94;5080809;28;20067;-47
2021/08/06 06:35:23;;;;;;;1.52;0.60;;;;;;;15.10;88.21;98605.34;5079793;28;20062;-47
2021/08/06 06:37:51;;;;;;;1.13;1.02;;;;;;;15.11;88.01;98610.50;5078975;28;20051;-48
2021/08/06 06:40:19;;;;;;;0.70;0.60;;;;;;;15.09;88.19;98612.91;5080043;28;20140;-46
2021/08/06 06:42:47;;;;;;;2.17;0.70;;;;;;;15.10;88.23;98614.50;5078267;28;20138;-46
2021/08/06 06:45:15;;;;;;;0.60;0.60;;;;;;;15.17;88.19;98611.56;5078468;28;20054;-44
2021/08/06 06:47:44;;;;;;;1.70;0.90;;;;;;;15.22;88.20;98619.41;5078840;28;20050;-45
2021/08/06 06:50:14;;;;;;;2.75;0.70;;;;;;;15.30;88.11;98622.09;5077669;28;20051;-45
2021/08/06 06:52:42;;;;;;;2.38;0.80;;;;;;;15.36;88.02;98612.00;5078432;28;20094;-44
2021/08/06 06:55:10;;;;;;;1.50;1.17;;;;;;;15.32;87.98;98619.66;5079003;28;20040;-52
2021/08/06 06:57:45;;;;;;;4.40;1.08;;;;;;;15.31;87.80;98618.06;5077946;28;20048;-47
2021/08/06 07:00:13;;;;;;;0.75;0.75;;;;;;;15.24;87.62;98619.00;5079513;28;20930;-43
2021/08/06 07:02:40;;;;;;;3.00;1.42;;;;;;;15.21;87.68;98629.00;5077657;28;20127;-49
2021/08/06 07:05:08;;;;;;;2.55;1.23;;;;;;;15.22;87.85;98629.81;5078786;28;20044;-44
2021/08/06 07:07:35;;;;;;;1.75;1.00;;;;;;;15.24;87.74;98632.94;5078463;28;20659;-49
2021/08/06 07:10:03;;;;;;;1.27;1.17;;;;;;;15.27;87.61;98629.31;5080149;28;20032;-46
2021/08/06 07:12:30;;;;;;;1.77;1.08;;;;;;;15.27;87.43;98626.53;5078196;28;20763;-44
2021/08/06 07:14:59;;;;;;;1.95;1.20;;;;;;;15.31;87.38;98630.00;5079269;28;20126;-47
2021/08/06 07:17:26;;;;;;;2.72;0.90;;;;;;;15.31;87.20;98634.78;5079964;28;20048;-43
2021/08/06 07:19:53;;;;;;;1.58;1.05;;;;;;;15.28;87.18;98633.66;5080086;28;20055;-45
2021/08/06 07:22:20;;;;;;;1.15;0.82;;;;;;;15.27;86.75;98635.66;5081178;28;20524;-46
2021/08/06 07:24:46;;;;;;;4.40;1.58;;;;;;;15.31;86.84;98643.16;5080227;28;20040;-44
2021/08/06 07:27:13;;;;;;;2.75;1.00;;;;;;;15.34;86.79;98647.88;5080268;28;20130;-47
2021/08/06 07:29:40;;;;;;;1.00;0.90;;;;;;;15.33;86.41;98649.13;5081177;28;20131;-44
2021/08/06 07:32:07;;;;;;;3.78;1.00;;;;;;;15.37;86.32;98642.25;5081578;28;20056;-46
2021/08/06 07:34:35;;;;;;;5.95;1.52;;;;;;;15.43;85.99;98648.13;5079978;28;20138;-48
2021/08/06 07:37:02;;;;;;;2.55;1.13;;;;;;;15.39;85.97;98652.97;5080964;28;20137;-44
2021/08/06 07:39:29;;;;;;;2.55;1.20;;;;;;;15.37;85.98;98644.25;5081469;28;20064;-43
2021/08/06 07:41:56;;;;;;;3.08;1.30;;;;;;;15.38;85.77;98659.78;5081345;28;20063;-46
2021/08/06 07:44:23;;;;;;;8.43;1.40;;;;;;;15.38;85.55;98652.16;5080181;28;20044;-47
2021/08/06 07:46:50;;;;;;;7.03;1.88;;;;;;;15.41;85.49;98667.28;5080296;28;20059;-46
2021/08/06 07:49:17;;;;;;;6.30;1.30;;;;;;;15.47;85.30;98660.00;5071370;28;20047;-43
2021/08/06 07:51:44;;;;;;;5.97;1.77;;;;;;;15.50;85.18;98673.88;5076659;28;20044;-48
2021/08/06 07:54:10;;;;;;;3.70;1.42;;;;;;;15.54;84.73;98671.03;5079805;28;20044;-44
2021/08/06 07:56:37;;;;;;;1.80;1.20;;;;;;;15.51;84.59;98675.47;5078988;28;20055;-44
2021/08/06 07:59:04;;;;;;;6.30;2.10;;;;;;;15.49;84.63;98685.47;5079877;28;20059;-44
2021/08/06 08:01:30;;;;;;;5.30;1.65;;;;;;;15.45;84.44;98679.94;5079816;28;20048;-45
2021/08/06 08:03:57;;;;;;;6.28;1.85;;;;;;;15.49;84.48;98674.31;5078945;28;20489;-45
2021/08/06 08:06:25;;;;;;;6.63;3.80;;;;;;;15.48;84.04;98676.31;5079375;28;20051;-44
2021/08/06 08:08:52;;;;;;;7.53;2.20;;;;;;;15.52;84.10;98676.22;5080150;28;20028;-44
2021/08/06 08:11:18;;;;;;;7.68;2.33;;;;;;;15.57;83.87;98678.53;5078365;28;21245;-44
2021/08/06 08:13:45;;;;;;;7.40;3.88;;;;;;;15.60;83.72;98669.31;5079258;28;20040;-43
2021/08/06 08:16:13;;;;;;;4.45;1.65;;;;;;;15.66;83.50;98667.59;5078196;28;20051;-51
2021/08/06 08:18:39;;;;;;;5.70;1.80;;;;;;;15.77;83.49;98680.13;5078711;28;20055;-46
2021/08/06 08:21:06;;;;;;;6.80;2.13;;;;;;;15.86;83.17;98684.34;5078072;28;20051;-44
2021/08/06 08:23:33;;;;;;;9.13;2.50;;;;;;;15.95;83.06;98682.53;5078355;28;20055;-44
2021/08/06 08:26:00;;;;;;;7.28;1.42;;;;;;;16.00;82.56;98676.44;5056944;28;20662;-43
2021/08/06 08:28:27;;;;;;;4.18;1.70;;;;;;;16.11;82.57;98671.41;5067530;28;20028;-44
2021/08/06 08:30:54;;;;;;;6.47;2.10;;;;;;;16.11;82.23;98677.00;5074509;28;20789;-44
2021/08/06 08:33:25;;;;;;;5.95;2.92;;;;;;;16.14;82.24;98676.13;5055704;28;20382;-43
2021/08/06 08:35:55;;;;;;;6.75;2.40;;;;;;;16.22;82.09;98677.56;5057755;28;20490;-44
2021/08/06 08:38:22;;;;;;;6.00;1.70;;;;;;;16.22;81.94;98682.34;5055338;28;20049;-46
2021/08/06 08:40:49;;;;;;;2.47;1.30;;;;;;;16.16;81.70;98689.66;5058654;28;20059;-46
2021/08/06 08:43:16;;;;;;;5.45;1.67;;;;;;;16.10;81.69;98683.78;5057295;28;20063;-49
2021/08/06 08:45:42;;;;;;;4.40;1.60;;;;;;;16.04;81.60;98677.16;5058258;28;20067;-44
2021/08/06 08:48:12;;;;;;;12.10;3.28;;;;;;;16.01;81.36;98680.81;5058575;28;20044;-43
2021/08/06 08:50:41;;;;;;;2.92;1.73;;;;;;;15.98;81.27;98684.47;5055338;28;20043;-47
2021/08/06 08:53:09;;;;;;;4.78;1.83;;;;;;;15.99;81.41;98679.69;5059016;28;20056;-43
2021/08/06 08:55:39;;;;;;;9.63;2.03;;;;;;;15.94;81.28;98678.16;5058152;28;20051;-44
2021/08/06 08:58:06;;;;;;;4.60;1.80;;;;;;;15.86;81.54;98682.31;5057579;28;20134;-52
2021/08/06 09:00:33;;;;;;;8.13;1.80;;;;;;;15.85;81.53;98686.34;5057829;28;20052;-43
2021/08/06 09:03:01;;;;;;;5.72;1.73;;;;;;;15.79;81.56;98682.47;5055345;28;20143;-50
2021/08/06 09:05:28;;;;;;;8.80;1.95;;;;;;;15.77;81.57;98685.69;5056009;28;20151;-45
2021/08/06 09:07:58;;;;;;;7.82;2.33;;;;;;;15.79;81.74;98682.47;5058823;28;20048;-44
2021/08/06 09:10:29;;;;;;;8.13;2.20;;;;;;;15.86;81.65;98687.13;5058406;28;20044;-44
2021/08/06 09:12:59;;;;;;;7.32;1.58;;;;;;;15.89;81.40;98692.63;5060601;28;20103;-50
2021/08/06 09:15:49;;;;;;;7.35;1.88;;;;;;;15.92;81.38;98688.97;5061402;28;20052;-44
2021/08/06 09:18:36;;;;;;;7.97;2.53;;;;;;;15.93;81.24;98692.56;5060525;28;20098;-44
2021/08/06 09:21:14;;;;;;;6.03;1.90;;;;;;;15.91;81.13;98690.22;5062143;28;20036;-48
2021/08/06 09:23:48;;;;;;;6.75;2.70;;;;;;;15.91;81.25;98695.78;5061136;28;20164;-45
2021/08/06 09:26:27;;;;;;;4.28;1.60;;;;;;;15.89;80.95;98703.00;5061432;28;20043;-45
2021/08/06 09:29:22;;;;;;;4.00;1.52;;;;;;;15.87;80.69;98694.28;5060973;28;20076;-45
2021/08/06 09:32:00;;;;;;;8.40;2.05;;;;;;;15.87;81.06;98683.91;5060369;28;20040;-46
2021/08/06 09:34:35;;;;;;;5.20;1.70;;;;;;;15.90;80.98;98687.84;5076077;28;20871;-44
2021/08/06 09:37:21;;;;;;;7.57;2.78;;;;;;;15.96;80.99;98691.69;5080053;28;20048;-48
2021/08/06 09:39:53;;;;;;;9.77;2.03;;;;;;;16.01;81.00;98682.81;5078965;28;20059;-44
2021/08/06 09:42:25;;;;;;;4.93;1.70;;;;;;;16.08;80.92;98689.03;5080241;28;20956;-47
2021/08/06 09:45:10;;;;;;;5.07;1.52;;;;;;;16.27;80.50;98688.22;5081545;28;20047;-43
2021/08/06 09:47:41;;;;;;;4.47;1.63;;;;;;;16.51;80.44;98676.91;5062721;28;21084;-46
2021/08/06 09:50:14;;;;;;;3.58;2.10;;;;;;;16.71;80.10;98680.41;5079655;28;20062;-43
2021/08/06 09:52:46;;;;;;;6.63;1.58;;;;;;;16.94;80.16;98681.03;5081023;28;20137;-47
2021/08/06 09:55:35;;;;;;;3.97;1.40;;;;;;;17.17;79.72;98691.25;5080102;28;20043;-44
2021/08/06 09:58:06;;;;;;;6.20;2.38;;;;;;;17.22;78.53;98687.91;5078931;28;20062;-45
2021/08/06 10:00:39;;;;;;;5.97;1.90;;;;;;;17.23;78.49;98683.91;5060480;28;20044;-43
2021/08/06 10:03:06;;;;;;;;;;;;;;;17.17;77.43;98687.66;5058805;28;20493;-53
2021/08/06 10:05:33;;;;;;;5.03;1.80;;;;;;;17.18;78.14;98701.22;5073854;28;19928;-44
2021/08/06 10:08:02;;;;;;;6.68;2.05;;;;;;;17.16;77.82;98692.47;5081059;28;20040;-46
2021/08/06 10:10:34;;;;;;;2.85;1.58;;;;;;;17.13;77.21;98687.72;5081167;28;20047;-45
2021/08/06 10:13:03;;;;;;;9.38;2.28;;;;;;;17.11;77.40;98687.41;5080376;28;20118;-45
2021/08/06 10:15:30;;;;;;;14.30;3.10;;;;;;;17.14;77.29;98685.72;5078981;28;20496;-44
2021/08/06 10:17:58;;;;;;;7.90;2.13;;;;;;;17.29;77.13;98684.91;5080016;28;20746;-44
2021/08/06 10:20:27;;;;;;;9.43;2.40;;;;;;;17.38;77.03;98690.69;5078945;28;20142;-45
2021/08/06 10:22:54;;;;;;;7.05;2.38;;;;;;;17.41;76.62;98695.41;5079784;28;20151;-46
2021/08/06 10:25:23;;;;;;;10.90;2.45;;;;;;;17.36;76.40;98684.75;5080250;28;20056;-44
2021/08/06 10:27:51;;;;;;;8.68;2.05;;;;;;;17.38;76.45;98687.88;5077875;28;20462;-47
2021/08/06 10:30:22;;;;;;;7.43;1.77;;;;;;;17.40;75.68;98685.41;5075826;28;20055;-46
2021/08/06 10:33:25;;;;;;;5.25;2.38;;;;;;;17.42;75.08;98682.97;5077683;28;20044;-48
2021/08/06 10:36:02;;;;;;;6.63;1.95;;;;;;;17.56;75.58;98690.22;5068695;28;20298;-50
2021/08/06 10:38:33;;;;;;;8.77;2.70;;;;;;;17.63;75.44;98685.19;5077894;28;20063;-47
2021/08/06 10:41:01;;;;;;;6.75;2.10;;;;;;;17.67;75.26;98689.91;5079775;28;20139;-45
2021/08/06 10:43:40;;;;;;;4.90;1.83;;;;;;;17.74;74.69;98698.13;5079193;28;20807;-46
2021/08/06 10:46:09;;;;;;;6.68;2.38;;;;;;;17.76;74.61;98688.06;5079988;28;20048;-49
2021/08/06 10:48:43;;;;;;;4.78;2.13;;;;;;;17.78;74.46;98699.59;5061478;28;20737;-46
2021/08/06 10:53:57;;;;;;;6.15;1.98;;;;;;;17.89;74.20;98697.28;5079244;28;20032;-47
2021/08/06 10:56:27;;;;;;;3.42;1.70;;;;;;;18.06;74.34;98695.19;5079800;28;20509;-44
2021/08/06 10:59:03;;;;;;;7.60;2.75;;;;;;;18.17;73.79;98696.44;5080606;28;20584;-49
2021/08/06 11:01:33;;;;;;;2.78;1.17;;;;;;;18.29;73.19;98703.31;5078609;28;20043;-51
2021/08/06 11:04:11;;;;;;;3.53;1.50;;;;;;;18.36;72.52;98705.88;5078967;28;20115;-45
2021/08/06 11:06:45;;;;;;;7.70;2.03;;;;;;;18.36;72.25;98707.88;5080587;28;20072;-43
2021/08/06 11:12:03;;;;;;;3.85;1.33;;;;;;;18.24;70.32;98696.22;5080554;28;20050;-46
2021/08/06 11:14:30;;;;;;;4.10;1.30;;;;;;;18.21;71.75;98690.75;5077421;28;20443;-45
2021/08/06 11:17:02;;;;;;;4.70;1.60;;;;;;;18.20;71.22;98689.16;5078307;28;20198;-44
2021/08/06 11:19:39;;;;;;;4.70;1.58;;;;;;;18.24;71.28;98687.06;5077063;28;20058;-45
2021/08/06 11:22:27;;;;;;;5.25;1.42;;;;;;;18.36;70.28;98696.69;5080207;28;20048;-49
2021/08/06 11:25:07;;;;;;;8.50;1.25;;;;;;;18.39;70.82;98696.59;5077435;28;20044;-46
2021/08/06 11:27:41;;;;;;;6.97;1.67;;;;;;;18.38;70.05;98689.41;5078198;28;20056;-44
2021/08/06 11:30:14;;;;;;;3.35;1.27;;;;;;;18.43;70.28;98696.44;5076825;28;20070;-47
2021/08/06 11:33:04;;;;;;;1.80;1.30;;;;;;;18.50;68.97;98680.25;5078537;28;20170;-43
2021/08/06 11:35:43;;;;;;;3.55;1.17;;;;;;;18.62;69.48;98678.66;5077896;28;20104;-44
2021/08/06 11:38:12;;;;;;;6.35;1.00;;;;;;;18.77;69.64;98674.19;5078957;28;20036;-45
2021/08/06 11:40:46;;;;;;;3.13;1.23;;;;;;;18.91;68.36;98687.72;5076816;28;20060;-49
2021/08/06 11:43:25;;;;;;;3.75;1.10;;;;;;;19.05;67.76;98689.28;5078572;28;20044;-47
2021/08/06 11:45:54;;;;;;;4.45;1.80;;;;;;;19.21;68.78;98689.91;5076628;28;20109;-49
2021/08/06 11:48:21;;;;;;;1.52;0.90;;;;;;;19.43;68.59;98682.34;5079008;28;20145;-47
2021/08/06 11:50:54;;;;;;;1.55;0.80;;;;;;;19.69;65.77;98677.41;5078472;28;20459;-46